createdAt,value
2019-04-26T00:01:23.732Z,9.97
2019-04-26T00:06:10.300Z,9.70
2019-04-26T00:11:01.509Z,8.10
2019-04-26T00:16:05.317Z,8.57
2019-04-26T00:20:50.133Z,7.43
2019-04-26T00:25:34.955Z,9.57
2019-04-26T00:30:19.917Z,10.87
2019-04-26T00:35:05.115Z,11.43
2019-04-26T00:39:52.726Z,9.60
2019-04-26T00:44:38.331Z,7.73
2019-04-26T00:49:23.429Z,10.53
2019-04-26T00:54:08.335Z,11.23
2019-04-26T00:58:53.506Z,8.30
2019-04-26T01:03:38.277Z,6.27
2019-04-26T01:08:23.479Z,7.97
2019-04-26T01:13:08.150Z,11.17
2019-04-26T01:17:52.812Z,9.07
2019-04-26T01:22:41.740Z,7.00
2019-04-26T01:27:28.594Z,6.77
2019-04-26T01:32:13.858Z,9.00
2019-04-26T01:37:01.127Z,8.47
2019-04-26T01:41:51.698Z,10.30
2019-04-26T01:46:42.375Z,9.37
2019-04-26T01:51:33.216Z,7.10
2019-04-26T01:56:21.818Z,9.33
2019-04-26T02:01:17.840Z,9.67
2019-04-26T02:06:02.617Z,7.40
2019-04-26T02:10:47.306Z,9.97
2019-04-26T02:15:33.569Z,12.73
2019-04-26T02:21:31.869Z,13.20
2019-04-26T02:26:34.917Z,11.27
2019-04-26T02:31:21.158Z,11.13
2019-04-26T02:36:06.308Z,7.37
2019-04-26T02:40:51.807Z,7.37
2019-04-26T02:46:11.069Z,10.33
2019-04-26T02:51:03.037Z,11.67
2019-04-26T02:56:04.526Z,10.73
2019-04-26T03:00:50.401Z,11.23
2019-04-26T03:05:39.668Z,11.53
2019-04-26T03:10:32.696Z,8.03
2019-04-26T03:15:38.927Z,11.50
2019-04-26T03:20:32.568Z,11.77
2019-04-26T03:25:22.169Z,11.57
2019-04-26T03:30:39.045Z,14.90
2019-04-26T03:35:57.148Z,15.37
2019-04-26T03:40:49.003Z,13.73
2019-04-26T03:45:55.387Z,14.27
2019-04-26T03:50:47.859Z,9.33
2019-04-26T03:56:16.362Z,11.73
2019-04-26T04:01:07.355Z,11.37
2019-04-26T04:05:55.769Z,9.77
2019-04-26T04:10:47.714Z,12.17
2019-04-26T04:15:44.690Z,8.40
2019-04-26T04:20:57.736Z,11.83
2019-04-26T04:25:47.792Z,12.63
2019-04-26T04:31:10.720Z,9.40
2019-04-26T04:36:00.834Z,11.73
2019-04-26T04:41:30.247Z,14.67
2019-04-26T04:46:56.606Z,14.17
2019-04-26T04:52:30.119Z,11.77
2019-04-26T04:57:35.476Z,10.97
2019-04-26T05:02:56.483Z,9.00
2019-04-26T05:08:07.076Z,14.47
2019-04-26T05:13:17.710Z,11.27
2019-04-26T05:18:39.124Z,9.80
2019-04-26T05:24:02.577Z,12.47
2019-04-26T05:29:05.071Z,14.00
2019-04-26T05:34:13.418Z,10.90
2019-04-26T05:39:55.271Z,5.70
2019-04-26T05:45:20.888Z,8.67
2019-04-26T05:50:40.971Z,10.80
2019-04-26T05:56:02.670Z,8.70
2019-04-26T06:01:04.586Z,10.30
2019-04-26T06:06:21.405Z,9.10
2019-04-26T06:11:19.271Z,11.67
2019-04-26T06:16:22.888Z,11.33
2019-04-26T06:21:40.015Z,10.43
2019-04-26T06:27:13.731Z,10.23
2019-04-26T06:32:00.420Z,11.13
2019-04-26T06:37:17.002Z,11.80
2019-04-26T06:42:43.709Z,9.23
2019-04-26T06:47:48.535Z,6.67
2019-04-26T06:52:37.547Z,12.43
2019-04-26T06:58:09.907Z,12.17
2019-04-26T07:03:29.855Z,9.50
2019-04-26T07:08:57.813Z,8.50
2019-04-26T07:14:21.503Z,13.20
2019-04-26T07:19:48.363Z,9.63
2019-04-26T07:25:19.554Z,5.77
2019-04-26T07:30:14.232Z,6.77
2019-04-26T07:35:29.814Z,9.67
2019-04-26T07:41:12.409Z,6.43
2019-04-26T07:46:10.675Z,9.73
2019-04-26T07:51:31.118Z,8.00
2019-04-26T07:56:32.810Z,8.77
2019-04-26T08:01:51.484Z,8.73
2019-04-26T08:06:48.684Z,8.07
2019-04-26T08:11:38.910Z,9.10
2019-04-26T08:16:43.226Z,3.90
2019-04-26T08:21:36.128Z,3.70
2019-04-26T08:26:26.585Z,5.00
2019-04-26T08:31:15.500Z,6.70
2019-04-26T08:36:04.531Z,5.20
2019-04-26T08:40:49.960Z,3.77
2019-04-26T08:46:01.767Z,6.43
2019-04-26T08:50:42.226Z,3.77
2019-04-26T08:55:28.780Z,5.53
2019-04-26T09:00:44.914Z,3.30
2019-04-26T09:05:51.407Z,6.53
2019-04-26T09:10:43.284Z,5.67
2019-04-26T09:15:51.784Z,4.27
2019-04-26T09:20:38.544Z,3.73
2019-04-26T09:25:39.022Z,7.17
2019-04-26T09:30:41.973Z,6.00
2019-04-26T09:35:27.109Z,3.67
2019-04-26T09:40:21.000Z,6.73
2019-04-26T09:45:19.282Z,2.23
2019-04-26T09:50:27.262Z,3.27
2019-04-26T09:55:12.466Z,3.60
2019-04-26T10:00:04.696Z,5.13
2019-04-26T10:04:50.120Z,4.80
2019-04-26T10:09:38.763Z,5.03
2019-04-26T10:14:37.822Z,5.47
2019-04-26T10:19:37.097Z,2.47
2019-04-26T10:24:21.939Z,5.13
2019-04-26T10:29:06.860Z,6.57
2019-04-26T10:33:51.820Z,4.93
2019-04-26T10:38:37.022Z,5.17
2019-04-26T10:43:22.381Z,3.60
2019-04-26T10:48:09.674Z,8.07
2019-04-26T10:53:03.463Z,5.23
2019-04-26T10:57:49.247Z,4.30
2019-04-26T11:02:34.446Z,5.87
2019-04-26T11:07:19.293Z,6.63
2019-04-26T11:12:06.628Z,4.50
2019-04-26T11:16:51.721Z,6.50
2019-04-26T11:21:36.838Z,3.00
2019-04-26T11:26:21.640Z,4.57
2019-04-26T11:31:06.686Z,9.60
2019-04-26T11:35:52.037Z,3.10
2019-04-26T11:40:37.289Z,4.33
2019-04-26T11:45:22.141Z,3.40
2019-04-26T11:50:07.827Z,5.90
2019-04-26T11:54:55.247Z,4.63
2019-04-26T11:59:39.703Z,6.40
2019-04-26T12:04:49.628Z,4.70
2019-04-26T12:09:36.655Z,5.73
2019-04-26T12:14:21.541Z,5.60
2019-04-26T12:19:06.892Z,3.87
2019-04-26T12:23:55.447Z,7.00
2019-04-26T12:28:39.988Z,7.30
2019-04-26T12:33:26.090Z,5.90
2019-04-26T12:38:10.845Z,7.10
2019-04-26T12:42:55.970Z,8.60
2019-04-26T12:47:46.962Z,5.47
2019-04-26T12:52:32.201Z,5.73
2019-04-26T12:57:19.531Z,3.43
2019-04-26T13:02:05.844Z,5.90
2019-04-26T13:06:57.681Z,4.77
2019-04-26T13:12:01.647Z,6.00
2019-04-26T13:16:57.149Z,4.73
2019-04-26T13:21:40.761Z,5.80
2019-04-26T13:26:25.490Z,5.93
2019-04-26T13:31:12.125Z,5.80
2019-04-26T13:36:04.123Z,6.70
2019-04-26T13:40:43.543Z,5.03
2019-04-26T13:45:39.274Z,6.10
2019-04-26T13:50:28.439Z,4.37
2019-04-26T13:55:13.299Z,6.33
2019-04-26T13:59:58.226Z,5.73
2019-04-26T14:04:43.038Z,6.50
2019-04-26T14:09:28.038Z,5.20
2019-04-26T14:14:13.101Z,6.30
2019-04-26T14:18:58.044Z,6.60
2019-04-26T14:24:00.768Z,7.07
2019-04-26T14:28:54.256Z,4.93
2019-04-26T14:33:37.058Z,4.13
2019-04-26T14:38:27.907Z,5.10
2019-04-26T14:43:09.106Z,6.43
2019-04-26T14:47:54.810Z,3.80
2019-04-26T14:52:42.096Z,3.73
2019-04-26T14:57:31.593Z,7.60
2019-04-26T15:02:47.146Z,4.97
2019-04-26T15:07:28.311Z,7.10
2019-04-26T15:12:17.171Z,4.23
2019-04-26T15:17:06.904Z,4.93
2019-04-26T15:21:52.327Z,6.40
2019-04-26T15:26:37.708Z,5.53
2019-04-26T15:31:25.044Z,7.00
2019-04-26T15:36:12.875Z,4.37
2019-04-26T15:41:16.654Z,4.33
2019-04-26T15:46:31.798Z,4.23
2019-04-26T15:51:23.767Z,5.73
2019-04-26T15:56:17.604Z,3.90
2019-04-26T16:01:06.762Z,3.80
2019-04-26T16:05:49.870Z,4.50
2019-04-26T16:10:43.070Z,4.73
2019-04-26T16:15:30.260Z,5.03
2019-04-26T16:20:15.782Z,5.50
2019-04-26T16:25:05.134Z,8.03
2019-04-26T16:30:03.068Z,9.10
2019-04-26T16:34:48.869Z,6.10
2019-04-26T16:39:38.801Z,6.67
2019-04-26T16:44:28.273Z,6.57
2019-04-26T16:49:11.571Z,9.07
2019-04-26T16:54:07.038Z,11.90
2019-04-26T16:58:54.970Z,11.07
2019-04-26T17:03:47.974Z,11.40
2019-04-26T17:08:33.497Z,11.83
2019-04-26T17:13:19.290Z,12.10
2019-04-26T17:18:04.887Z,13.70
2019-04-26T17:23:03.875Z,12.70
2019-04-26T17:27:53.674Z,12.97
2019-04-26T17:32:39.222Z,13.63
2019-04-26T17:37:26.576Z,13.63
2019-04-26T17:42:11.660Z,15.10
2019-04-26T17:46:59.705Z,13.93
2019-04-26T17:51:44.428Z,17.03
2019-04-26T17:56:33.622Z,15.67
2019-04-26T18:01:41.966Z,15.73
2019-04-26T18:06:29.133Z,17.23
2019-04-26T18:16:17.858Z,22.67
2019-04-26T18:21:23.622Z,22.57
2019-04-26T18:26:43.462Z,24.23
2019-04-26T18:31:30.873Z,26.27
2019-04-26T18:38:48.609Z,33.58
2019-04-26T18:43:59.741Z,26.93
2019-04-26T18:48:40.656Z,25.40
2019-04-26T18:54:17.721Z,25.37
2019-04-26T18:59:11.738Z,26.70
2019-04-26T19:04:12.498Z,27.83
2019-04-26T19:09:01.823Z,25.07
2019-04-26T19:14:02.474Z,22.00
2019-04-26T19:19:15.401Z,21.23
2019-04-26T19:24:07.416Z,22.20
2019-04-26T19:29:15.619Z,22.60
2019-04-26T19:34:04.822Z,22.30
2019-04-26T19:38:53.145Z,18.50
2019-04-26T19:43:46.119Z,9.70
2019-04-26T19:49:08.974Z,5.70
2019-04-26T19:54:21.474Z,5.50
2019-04-26T19:59:42.309Z,7.70
2019-04-26T20:22:10.131Z,5.93
2019-04-26T20:33:26.709Z,6.07
2019-04-26T20:44:07.046Z,7.20
2019-04-26T20:49:19.148Z,6.90
2019-04-26T20:54:26.667Z,7.00
2019-04-26T20:59:35.864Z,7.70
2019-04-26T21:04:37.992Z,7.13
2019-04-26T21:10:05.056Z,7.73
2019-04-26T21:14:57.399Z,7.13
2019-04-26T21:19:44.549Z,7.53
2019-04-26T21:25:04.666Z,6.97
2019-04-26T21:30:21.596Z,7.13
2019-04-26T21:35:28.222Z,6.40
2019-04-26T21:40:33.586Z,6.73
2019-04-26T21:45:27.906Z,6.93
2019-04-26T21:50:11.500Z,8.30
2019-04-26T21:54:58.254Z,9.37
2019-04-26T21:59:45.534Z,9.37
2019-04-26T22:04:37.605Z,10.63
2019-04-26T22:09:50.093Z,10.30
2019-04-26T22:14:40.176Z,11.20
2019-04-26T22:19:58.286Z,11.63
2019-04-26T22:24:53.130Z,12.43
2019-04-26T22:29:37.983Z,11.50
2019-04-26T22:34:23.597Z,11.15
2019-04-26T22:39:17.408Z,11.10
2019-04-26T22:44:15.609Z,12.00
2019-04-26T22:49:03.731Z,11.13
2019-04-26T22:53:57.486Z,11.43
2019-04-26T22:58:44.158Z,11.07
2019-04-26T23:03:29.820Z,10.47
2019-04-26T23:08:18.255Z,10.53
2019-04-26T23:13:44.369Z,9.67
2019-04-26T23:18:46.251Z,8.53
2019-04-26T23:23:31.966Z,8.93
2019-04-26T23:28:17.217Z,8.57
2019-04-26T23:33:02.210Z,10.03
2019-04-26T23:37:47.304Z,8.47
2019-04-26T23:42:33.104Z,7.60
2019-04-26T23:47:23.229Z,7.53
2019-04-26T23:52:07.335Z,7.97
2019-04-26T23:56:57.773Z,7.60
